sensor_id;sensor_type;location;lat;lon;timestamp;temperature;humidity
11005;DHT22;5555;59.622;16.556;2022-11-14T00:00:00;5.80;99.90
11005;DHT22;5555;59.622;16.556;2022-11-14T00:02:26;5.90;99.90
11005;DHT22;5555;59.622;16.556;2022-11-14T00:04:51;5.90;99.90
11005;DHT22;5555;59.622;16.556;2022-11-14T00:07:17;5.90;99.90
11005;DHT22;5555;59.622;16.556;2022-11-14T00:09:43;6.00;99.90
11005;DHT22;5555;59.622;16.556;2022-11-14T00:12:09;5.90;99.90
11005;DHT22;5555;59.622;16.556;2022-11-14T00:14:35;5.90;99.90
11005;DHT22;5555;59.622;16.556;2022-11-14T00:17:00;6.00;99.90
11005;DHT22;5555;59.622;16.556;2022-11-14T00:19:26;6.00;99.90
11005;DHT22;5555;59.622;16.556;2022-11-14T00:21:52;6.00;99.90
11005;DHT22;5555;59.622;16.556;2022-11-14T00:24:18;6.10;99.90
11005;DHT22;5555;59.622;16.556;2022-11-14T00:26:44;6.10;99.90
11005;DHT22;5555;59.622;16.556;2022-11-14T00:29:11;6.10;99.90
11005;DHT22;5555;59.622;16.556;2022-11-14T00:31:37;6.10;99.90
11005;DHT22;5555;59.622;16.556;2022-11-14T00:34:02;6.10;99.90
11005;DHT22;5555;59.622;16.556;2022-11-14T00:36:28;6.20;99.90
11005;DHT22;5555;59.622;16.556;2022-11-14T00:38:54;6.20;99.90
11005;DHT22;5555;59.622;16.556;2022-11-14T00:41:20;6.20;99.90
11005;DHT22;5555;59.622;16.556;2022-11-14T00:43:45;6.20;99.90
11005;DHT22;5555;59.622;16.556;2022-11-14T00:46:11;6.20;99.90
11005;DHT22;5555;59.622;16.556;2022-11-14T00:48:37;6.20;99.90
11005;DHT22;5555;59.622;16.556;2022-11-14T00:51:03;6.20;99.90
11005;DHT22;5555;59.622;16.556;2022-11-14T00:53:29;6.20;99.90
11005;DHT22;5555;59.622;16.556;2022-11-14T00:55:54;6.20;99.90
11005;DHT22;5555;59.622;16.556;2022-11-14T00:58:20;6.20;99.90
11005;DHT22;5555;59.622;16.556;2022-11-14T01:00:46;6.30;99.90
11005;DHT22;5555;59.622;16.556;2022-11-14T01:03:12;6.30;99.90
11005;DHT22;5555;59.622;16.556;2022-11-14T01:05:42;6.30;99.90
11005;DHT22;5555;59.622;16.556;2022-11-14T01:08:08;6.30;99.90
11005;DHT22;5555;59.622;16.556;2022-11-14T01:10:37;6.30;99.90
11005;DHT22;5555;59.622;16.556;2022-11-14T01:13:02;6.30;99.90
11005;DHT22;5555;59.622;16.556;2022-11-14T01:15:28;6.30;99.90
11005;DHT22;5555;59.622;16.556;2022-11-14T01:17:53;6.30;99.90
11005;DHT22;5555;59.622;16.556;2022-11-14T01:20:19;6.30;99.90
11005;DHT22;5555;59.622;16.556;2022-11-14T01:22:45;6.30;99.90
11005;DHT22;5555;59.622;16.556;2022-11-14T01:25:10;6.30;99.90
11005;DHT22;5555;59.622;16.556;2022-11-14T01:27:36;6.30;99.90
11005;DHT22;5555;59.622;16.556;2022-11-14T01:30:02;6.30;99.90
11005;DHT22;5555;59.622;16.556;2022-11-14T01:32:28;6.30;99.90
11005;DHT22;5555;59.622;16.556;2022-11-14T01:34:53;6.30;99.90
11005;DHT22;5555;59.622;16.556;2022-11-14T01:37:19;6.30;99.90
11005;DHT22;5555;59.622;16.556;2022-11-14T01:39:45;6.40;99.90
11005;DHT22;5555;59.622;16.556;2022-11-14T01:42:10;6.40;99.90
11005;DHT22;5555;59.622;16.556;2022-11-14T01:44:47;6.40;99.90
11005;DHT22;5555;59.622;16.556;2022-11-14T01:47:17;6.40;99.90
11005;DHT22;5555;59.622;16.556;2022-11-14T01:49:46;6.40;99.90
11005;DHT22;5555;59.622;16.556;2022-11-14T01:52:22;6.40;99.90
11005;DHT22;5555;59.622;16.556;2022-11-14T01:54:54;6.40;99.90
11005;DHT22;5555;59.622;16.556;2022-11-14T01:57:25;6.40;99.90
11005;DHT22;5555;59.622;16.556;2022-11-14T01:59:54;6.40;99.90
11005;DHT22;5555;59.622;16.556;2022-11-14T02:02:23;6.40;99.90
11005;DHT22;5555;59.622;16.556;2022-11-14T02:04:54;6.40;99.90
11005;DHT22;5555;59.622;16.556;2022-11-14T02:07:24;6.40;99.90
11005;DHT22;5555;59.622;16.556;2022-11-14T02:09:50;6.40;99.90
11005;DHT22;5555;59.622;16.556;2022-11-14T02:12:18;6.40;99.90
11005;DHT22;5555;59.622;16.556;2022-11-14T02:14:47;6.40;99.90
11005;DHT22;5555;59.622;16.556;2022-11-14T02:17:15;6.40;99.90
11005;DHT22;5555;59.622;16.556;2022-11-14T02:19:42;6.50;99.90
11005;DHT22;5555;59.622;16.556;2022-11-14T02:22:08;6.50;99.90
11005;DHT22;5555;59.622;16.556;2022-11-14T02:24:34;6.40;99.90
11005;DHT22;5555;59.622;16.556;2022-11-14T02:26:59;6.40;99.90
11005;DHT22;5555;59.622;16.556;2022-11-14T02:29:26;6.40;99.90
11005;DHT22;5555;59.622;16.556;2022-11-14T02:31:51;6.40;99.90
11005;DHT22;5555;59.622;16.556;2022-11-14T02:34:17;6.40;99.90
11005;DHT22;5555;59.622;16.556;2022-11-14T02:36:44;6.40;99.90
11005;DHT22;5555;59.622;16.556;2022-11-14T02:39:10;6.40;99.90
11005;DHT22;5555;59.622;16.556;2022-11-14T02:41:36;6.40;99.90
11005;DHT22;5555;59.622;16.556;2022-11-14T02:44:01;6.40;99.90
11005;DHT22;5555;59.622;16.556;2022-11-14T02:46:27;6.40;99.90
11005;DHT22;5555;59.622;16.556;2022-11-14T02:48:53;6.40;99.90
11005;DHT22;5555;59.622;16.556;2022-11-14T02:51:18;6.40;99.90
11005;DHT22;5555;59.622;16.556;2022-11-14T02:53:44;6.40;99.90
11005;DHT22;5555;59.622;16.556;2022-11-14T02:56:09;6.40;99.90
11005;DHT22;5555;59.622;16.556;2022-11-14T02:58:35;6.40;99.90
11005;DHT22;5555;59.622;16.556;2022-11-14T03:01:01;6.40;99.90
11005;DHT22;5555;59.622;16.556;2022-11-14T03:03:26;6.40;99.90
11005;DHT22;5555;59.622;16.556;2022-11-14T03:05:52;6.40;99.90
11005;DHT22;5555;59.622;16.556;2022-11-14T03:08:22;6.40;99.90
11005;DHT22;5555;59.622;16.556;2022-11-14T03:10:48;6.40;99.90
11005;DHT22;5555;59.622;16.556;2022-11-14T03:13:13;6.40;99.90
11005;DHT22;5555;59.622;16.556;2022-11-14T03:15:39;6.40;99.90
11005;DHT22;5555;59.622;16.556;2022-11-14T03:18:05;6.40;99.90
11005;DHT22;5555;59.622;16.556;2022-11-14T03:20:30;6.40;99.90
11005;DHT22;5555;59.622;16.556;2022-11-14T03:22:56;6.40;99.90
11005;DHT22;5555;59.622;16.556;2022-11-14T03:25:21;6.40;99.90
11005;DHT22;5555;59.622;16.556;2022-11-14T03:27:47;6.40;99.90
11005;DHT22;5555;59.622;16.556;2022-11-14T03:30:13;6.30;99.90
11005;DHT22;5555;59.622;16.556;2022-11-14T03:32:39;6.30;99.90
11005;DHT22;5555;59.622;16.556;2022-11-14T03:35:05;6.40;99.90
11005;DHT22;5555;59.622;16.556;2022-11-14T03:37:30;6.40;99.90
11005;DHT22;5555;59.622;16.556;2022-11-14T03:39:56;6.40;99.90
11005;DHT22;5555;59.622;16.556;2022-11-14T03:42:22;6.40;99.90
11005;DHT22;5555;59.622;16.556;2022-11-14T03:44:47;6.40;99.90
11005;DHT22;5555;59.622;16.556;2022-11-14T03:47:13;6.40;99.90
11005;DHT22;5555;59.622;16.556;2022-11-14T03:49:38;6.40;99.90
11005;DHT22;5555;59.622;16.556;2022-11-14T03:52:05;6.40;99.90
11005;DHT22;5555;59.622;16.556;2022-11-14T03:54:30;6.40;99.90
11005;DHT22;5555;59.622;16.556;2022-11-14T03:56:56;6.40;99.90
11005;DHT22;5555;59.622;16.556;2022-11-14T03:59:21;6.40;99.90
11005;DHT22;5555;59.622;16.556;2022-11-14T04:01:47;6.40;99.90
11005;DHT22;5555;59.622;16.556;2022-11-14T04:04:14;6.40;99.90
11005;DHT22;5555;59.622;16.556;2022-11-14T04:06:39;6.50;99.90
11005;DHT22;5555;59.622;16.556;2022-11-14T04:09:05;6.50;99.90
11005;DHT22;5555;59.622;16.556;2022-11-14T04:11:31;6.50;99.90
11005;DHT22;5555;59.622;16.556;2022-11-14T04:13:56;6.50;99.90
11005;DHT22;5555;59.622;16.556;2022-11-14T04:16:22;6.50;99.90
11005;DHT22;5555;59.622;16.556;2022-11-14T04:18:48;6.50;99.90
11005;DHT22;5555;59.622;16.556;2022-11-14T04:21:13;6.50;99.90
11005;DHT22;5555;59.622;16.556;2022-11-14T04:23:39;6.50;99.90
11005;DHT22;5555;59.622;16.556;2022-11-14T04:26:05;6.50;99.90
11005;DHT22;5555;59.622;16.556;2022-11-14T04:28:30;6.50;99.90
11005;DHT22;5555;59.622;16.556;2022-11-14T04:30:56;6.50;99.90
11005;DHT22;5555;59.622;16.556;2022-11-14T04:33:21;6.50;99.90
11005;DHT22;5555;59.622;16.556;2022-11-14T04:35:47;6.60;99.90
11005;DHT22;5555;59.622;16.556;2022-11-14T04:38:13;6.50;99.90
11005;DHT22;5555;59.622;16.556;2022-11-14T04:40:38;6.50;99.90
11005;DHT22;5555;59.622;16.556;2022-11-14T04:43:04;6.50;99.90
11005;DHT22;5555;59.622;16.556;2022-11-14T04:45:30;6.60;99.90
11005;DHT22;5555;59.622;16.556;2022-11-14T04:47:56;6.60;99.90
11005;DHT22;5555;59.622;16.556;2022-11-14T04:50:21;6.60;99.90
11005;DHT22;5555;59.622;16.556;2022-11-14T04:52:50;6.60;99.90
11005;DHT22;5555;59.622;16.556;2022-11-14T04:55:16;6.60;99.90
11005;DHT22;5555;59.622;16.556;2022-11-14T04:57:42;6.60;99.90
11005;DHT22;5555;59.622;16.556;2022-11-14T05:00:08;6.60;99.90
11005;DHT22;5555;59.622;16.556;2022-11-14T05:02:34;6.60;99.90
11005;DHT22;5555;59.622;16.556;2022-11-14T05:04:59;6.60;99.90
11005;DHT22;5555;59.622;16.556;2022-11-14T05:07:25;6.60;99.90
11005;DHT22;5555;59.622;16.556;2022-11-14T05:09:50;6.60;99.90
11005;DHT22;5555;59.622;16.556;2022-11-14T05:12:16;6.60;99.90
11005;DHT22;5555;59.622;16.556;2022-11-14T05:14:42;6.60;99.90
11005;DHT22;5555;59.622;16.556;2022-11-14T05:17:07;6.60;99.90
11005;DHT22;5555;59.622;16.556;2022-11-14T05:19:33;6.60;99.90
11005;DHT22;5555;59.622;16.556;2022-11-14T05:21:58;6.60;99.90
11005;DHT22;5555;59.622;16.556;2022-11-14T05:24:24;6.60;99.90
11005;DHT22;5555;59.622;16.556;2022-11-14T05:26:50;6.60;99.90
11005;DHT22;5555;59.622;16.556;2022-11-14T05:29:16;6.60;99.90
11005;DHT22;5555;59.622;16.556;2022-11-14T05:31:41;6.60;99.90
11005;DHT22;5555;59.622;16.556;2022-11-14T05:34:07;6.60;99.90
11005;DHT22;5555;59.622;16.556;2022-11-14T05:36:33;6.60;99.90
11005;DHT22;5555;59.622;16.556;2022-11-14T05:38:58;6.60;99.90
11005;DHT22;5555;59.622;16.556;2022-11-14T05:41:24;6.60;99.90
11005;DHT22;5555;59.622;16.556;2022-11-14T05:43:49;6.60;99.90
11005;DHT22;5555;59.622;16.556;2022-11-14T05:46:15;6.60;99.90
11005;DHT22;5555;59.622;16.556;2022-11-14T05:48:41;6.60;99.90
11005;DHT22;5555;59.622;16.556;2022-11-14T05:51:10;6.60;99.90
11005;DHT22;5555;59.622;16.556;2022-11-14T05:53:37;6.60;99.90
11005;DHT22;5555;59.622;16.556;2022-11-14T05:56:04;6.60;99.90
11005;DHT22;5555;59.622;16.556;2022-11-14T05:58:31;6.60;99.90
11005;DHT22;5555;59.622;16.556;2022-11-14T06:01:11;6.60;99.90
11005;DHT22;5555;59.622;16.556;2022-11-14T06:03:39;6.60;99.90
11005;DHT22;5555;59.622;16.556;2022-11-14T06:06:07;6.60;99.90
11005;DHT22;5555;59.622;16.556;2022-11-14T06:08:34;6.60;99.90
11005;DHT22;5555;59.622;16.556;2022-11-14T06:11:11;6.60;99.90
11005;DHT22;5555;59.622;16.556;2022-11-14T06:13:37;6.60;99.90
11005;DHT22;5555;59.622;16.556;2022-11-14T06:16:07;6.60;99.90
11005;DHT22;5555;59.622;16.556;2022-11-14T06:18:34;6.60;99.90
11005;DHT22;5555;59.622;16.556;2022-11-14T06:21:11;6.70;99.90
11005;DHT22;5555;59.622;16.556;2022-11-14T06:23:37;6.70;99.90
11005;DHT22;5555;59.622;16.556;2022-11-14T06:26:05;6.70;99.90
11005;DHT22;5555;59.622;16.556;2022-11-14T06:28:32;6.70;99.90
11005;DHT22;5555;59.622;16.556;2022-11-14T06:31:03;6.70;99.90
11005;DHT22;5555;59.622;16.556;2022-11-14T06:33:33;6.70;99.90
11005;DHT22;5555;59.622;16.556;2022-11-14T06:36:01;6.70;99.90
11005;DHT22;5555;59.622;16.556;2022-11-14T06:38:29;6.60;99.90
11005;DHT22;5555;59.622;16.556;2022-11-14T06:43:35;6.60;99.90
11005;DHT22;5555;59.622;16.556;2022-11-14T06:46:02;6.70;99.90
11005;DHT22;5555;59.622;16.556;2022-11-14T06:48:28;6.60;99.90
11005;DHT22;5555;59.622;16.556;2022-11-14T06:50:54;6.60;99.90
11005;DHT22;5555;59.622;16.556;2022-11-14T06:53:20;6.60;99.90
11005;DHT22;5555;59.622;16.556;2022-11-14T06:56:11;6.60;99.90
11005;DHT22;5555;59.622;16.556;2022-11-14T06:58:43;6.60;99.90
11005;DHT22;5555;59.622;16.556;2022-11-14T07:03:40;6.60;99.90
11005;DHT22;5555;59.622;16.556;2022-11-14T07:06:07;6.60;99.90
11005;DHT22;5555;59.622;16.556;2022-11-14T07:08:34;6.60;99.90
11005;DHT22;5555;59.622;16.556;2022-11-14T07:11:01;6.60;99.90
11005;DHT22;5555;59.622;16.556;2022-11-14T07:13:27;6.60;99.90
11005;DHT22;5555;59.622;16.556;2022-11-14T07:15:53;6.60;99.90
11005;DHT22;5555;59.622;16.556;2022-11-14T07:18:19;6.60;99.90
11005;DHT22;5555;59.622;16.556;2022-11-14T07:20:46;6.60;99.90
11005;DHT22;5555;59.622;16.556;2022-11-14T07:23:12;6.70;99.90
11005;DHT22;5555;59.622;16.556;2022-11-14T07:25:38;6.70;99.90
11005;DHT22;5555;59.622;16.556;2022-11-14T07:28:03;6.70;99.90
11005;DHT22;5555;59.622;16.556;2022-11-14T07:30:29;6.70;99.90
11005;DHT22;5555;59.622;16.556;2022-11-14T07:32:58;6.70;99.90
11005;DHT22;5555;59.622;16.556;2022-11-14T07:35:24;6.80;99.90
11005;DHT22;5555;59.622;16.556;2022-11-14T07:37:50;6.80;99.90
11005;DHT22;5555;59.622;16.556;2022-11-14T07:40:17;6.80;99.90
11005;DHT22;5555;59.622;16.556;2022-11-14T07:42:43;6.80;99.90
11005;DHT22;5555;59.622;16.556;2022-11-14T07:45:10;6.80;99.90
11005;DHT22;5555;59.622;16.556;2022-11-14T07:47:35;6.80;99.90
11005;DHT22;5555;59.622;16.556;2022-11-14T07:50:01;6.80;99.90
11005;DHT22;5555;59.622;16.556;2022-11-14T07:52:27;6.80;99.90
11005;DHT22;5555;59.622;16.556;2022-11-14T07:54:55;6.90;99.90
11005;DHT22;5555;59.622;16.556;2022-11-14T07:57:21;6.90;99.90
11005;DHT22;5555;59.622;16.556;2022-11-14T07:59:47;6.80;99.90
11005;DHT22;5555;59.622;16.556;2022-11-14T08:02:13;6.90;99.90
11005;DHT22;5555;59.622;16.556;2022-11-14T08:04:40;6.80;99.90
11005;DHT22;5555;59.622;16.556;2022-11-14T08:07:06;6.80;99.90
11005;DHT22;5555;59.622;16.556;2022-11-14T08:09:32;6.90;99.90
11005;DHT22;5555;59.622;16.556;2022-11-14T08:11:57;6.80;99.90
11005;DHT22;5555;59.622;16.556;2022-11-14T08:14:23;6.90;99.90
11005;DHT22;5555;59.622;16.556;2022-11-14T08:16:49;6.90;99.90
11005;DHT22;5555;59.622;16.556;2022-11-14T08:19:15;6.90;99.90
11005;DHT22;5555;59.622;16.556;2022-11-14T08:21:41;6.90;99.90
11005;DHT22;5555;59.622;16.556;2022-11-14T08:24:07;7.00;99.90
11005;DHT22;5555;59.622;16.556;2022-11-14T08:26:33;7.00;99.90
11005;DHT22;5555;59.622;16.556;2022-11-14T08:28:58;7.00;99.90
11005;DHT22;5555;59.622;16.556;2022-11-14T08:31:24;7.10;99.90
11005;DHT22;5555;59.622;16.556;2022-11-14T08:33:52;7.10;99.90
11005;DHT22;5555;59.622;16.556;2022-11-14T08:36:18;7.10;99.90
11005;DHT22;5555;59.622;16.556;2022-11-14T08:38:44;7.10;99.90
11005;DHT22;5555;59.622;16.556;2022-11-14T08:41:10;7.10;99.90
11005;DHT22;5555;59.622;16.556;2022-11-14T08:43:36;7.20;99.90
11005;DHT22;5555;59.622;16.556;2022-11-14T08:46:04;7.10;99.90
11005;DHT22;5555;59.622;16.556;2022-11-14T08:48:31;7.20;99.90
11005;DHT22;5555;59.622;16.556;2022-11-14T08:51:00;7.20;99.90
11005;DHT22;5555;59.622;16.556;2022-11-14T08:53:26;7.20;99.90
11005;DHT22;5555;59.622;16.556;2022-11-14T08:55:52;7.20;99.90
11005;DHT22;5555;59.622;16.556;2022-11-14T08:58:17;7.30;99.90
11005;DHT22;5555;59.622;16.556;2022-11-14T09:00:43;7.20;99.90
11005;DHT22;5555;59.622;16.556;2022-11-14T09:03:10;7.30;99.90
11005;DHT22;5555;59.622;16.556;2022-11-14T09:05:38;7.20;99.90
11005;DHT22;5555;59.622;16.556;2022-11-14T09:08:04;7.20;99.90
11005;DHT22;5555;59.622;16.556;2022-11-14T09:10:30;7.40;99.90
11005;DHT22;5555;59.622;16.556;2022-11-14T09:12:57;7.40;99.90
11005;DHT22;5555;59.622;16.556;2022-11-14T09:15:23;7.40;99.90
11005;DHT22;5555;59.622;16.556;2022-11-14T09:17:52;7.50;99.90
11005;DHT22;5555;59.622;16.556;2022-11-14T09:20:18;7.50;99.90
11005;DHT22;5555;59.622;16.556;2022-11-14T09:22:44;7.50;99.90
11005;DHT22;5555;59.622;16.556;2022-11-14T09:25:10;7.50;99.90
11005;DHT22;5555;59.622;16.556;2022-11-14T09:27:36;7.40;99.90
11005;DHT22;5555;59.622;16.556;2022-11-14T09:30:02;7.40;99.90
11005;DHT22;5555;59.622;16.556;2022-11-14T09:32:28;7.40;99.90
11005;DHT22;5555;59.622;16.556;2022-11-14T09:34:53;7.40;99.90
11005;DHT22;5555;59.622;16.556;2022-11-14T09:37:19;7.50;99.90
11005;DHT22;5555;59.622;16.556;2022-11-14T09:39:45;7.50;99.90
11005;DHT22;5555;59.622;16.556;2022-11-14T09:45:24;7.50;99.90
11005;DHT22;5555;59.622;16.556;2022-11-14T09:47:53;7.60;99.90
11005;DHT22;5555;59.622;16.556;2022-11-14T09:50:31;7.60;99.90
11005;DHT22;5555;59.622;16.556;2022-11-14T09:56:04;7.60;99.90
11005;DHT22;5555;59.622;16.556;2022-11-14T09:58:29;7.50;99.90
11005;DHT22;5555;59.622;16.556;2022-11-14T10:01:07;7.60;99.90
11005;DHT22;5555;59.622;16.556;2022-11-14T10:11:58;7.60;99.90
11005;DHT22;5555;59.622;16.556;2022-11-14T10:14:47;7.70;99.90
11005;DHT22;5555;59.622;16.556;2022-11-14T10:17:44;7.70;99.90
11005;DHT22;5555;59.622;16.556;2022-11-14T10:26:08;7.80;99.90
11005;DHT22;5555;59.622;16.556;2022-11-14T10:28:40;7.80;99.90
11005;DHT22;5555;59.622;16.556;2022-11-14T10:31:38;7.80;99.90
11005;DHT22;5555;59.622;16.556;2022-11-14T10:34:29;7.80;99.90
11005;DHT22;5555;59.622;16.556;2022-11-14T10:37:14;7.90;99.90
11005;DHT22;5555;59.622;16.556;2022-11-14T10:39:58;7.90;99.90
11005;DHT22;5555;59.622;16.556;2022-11-14T10:42:35;7.90;99.90
11005;DHT22;5555;59.622;16.556;2022-11-14T10:45:33;7.90;99.90
11005;DHT22;5555;59.622;16.556;2022-11-14T10:48:09;8.00;99.90
11005;DHT22;5555;59.622;16.556;2022-11-14T10:50:48;8.00;99.90
11005;DHT22;5555;59.622;16.556;2022-11-14T10:53:47;7.90;99.90
11005;DHT22;5555;59.622;16.556;2022-11-14T10:56:14;7.90;99.90
11005;DHT22;5555;59.622;16.556;2022-11-14T10:58:40;8.00;99.90
11005;DHT22;5555;59.622;16.556;2022-11-14T11:01:38;8.10;99.90
11005;DHT22;5555;59.622;16.556;2022-11-14T11:04:26;8.20;99.90
11005;DHT22;5555;59.622;16.556;2022-11-14T11:06:57;8.30;99.90
11005;DHT22;5555;59.622;16.556;2022-11-14T11:10:01;8.50;99.90
11005;DHT22;5555;59.622;16.556;2022-11-14T11:12:53;8.50;99.90
11005;DHT22;5555;59.622;16.556;2022-11-14T11:15:27;8.40;99.90
11005;DHT22;5555;59.622;16.556;2022-11-14T11:18:04;8.30;99.90
11005;DHT22;5555;59.622;16.556;2022-11-14T11:20:34;8.20;99.90
11005;DHT22;5555;59.622;16.556;2022-11-14T11:25:31;8.10;99.90
11005;DHT22;5555;59.622;16.556;2022-11-14T11:28:10;8.10;99.90
11005;DHT22;5555;59.622;16.556;2022-11-14T11:30:36;8.10;99.90
11005;DHT22;5555;59.622;16.556;2022-11-14T11:33:16;8.10;99.90
11005;DHT22;5555;59.622;16.556;2022-11-14T11:35:52;8.10;99.90
11005;DHT22;5555;59.622;16.556;2022-11-14T11:38:19;8.00;99.90
11005;DHT22;5555;59.622;16.556;2022-11-14T11:40:50;8.10;99.90
11005;DHT22;5555;59.622;16.556;2022-11-14T11:45:53;8.00;99.90
11005;DHT22;5555;59.622;16.556;2022-11-14T11:48:21;8.00;99.90
11005;DHT22;5555;59.622;16.556;2022-11-14T11:50:48;8.00;99.90
11005;DHT22;5555;59.622;16.556;2022-11-14T11:53:32;8.10;99.90
11005;DHT22;5555;59.622;16.556;2022-11-14T11:56:03;8.10;99.90
11005;DHT22;5555;59.622;16.556;2022-11-14T12:01:40;8.10;99.90
11005;DHT22;5555;59.622;16.556;2022-11-14T12:04:05;8.10;99.90
11005;DHT22;5555;59.622;16.556;2022-11-14T12:06:40;8.20;99.90
11005;DHT22;5555;59.622;16.556;2022-11-14T12:09:20;8.20;99.90
11005;DHT22;5555;59.622;16.556;2022-11-14T12:11:54;8.20;99.90
11005;DHT22;5555;59.622;16.556;2022-11-14T12:22:21;8.20;99.90
11005;DHT22;5555;59.622;16.556;2022-11-14T12:25:07;8.00;99.90
11005;DHT22;5555;59.622;16.556;2022-11-14T12:27:54;7.90;99.90
11005;DHT22;5555;59.622;16.556;2022-11-14T12:30:23;8.00;99.90
11005;DHT22;5555;59.622;16.556;2022-11-14T12:32:53;8.00;99.90
11005;DHT22;5555;59.622;16.556;2022-11-14T12:35:32;7.90;99.90
11005;DHT22;5555;59.622;16.556;2022-11-14T12:38:02;7.90;99.90
11005;DHT22;5555;59.622;16.556;2022-11-14T12:40:38;7.90;99.90
11005;DHT22;5555;59.622;16.556;2022-11-14T12:46:11;8.00;99.90
11005;DHT22;5555;59.622;16.556;2022-11-14T12:48:42;7.90;99.90
11005;DHT22;5555;59.622;16.556;2022-11-14T12:53:55;7.80;99.90
11005;DHT22;5555;59.622;16.556;2022-11-14T13:01:51;7.90;99.90
11005;DHT22;5555;59.622;16.556;2022-11-14T13:04:53;7.80;99.90
11005;DHT22;5555;59.622;16.556;2022-11-14T13:12:33;7.90;99.90
11005;DHT22;5555;59.622;16.556;2022-11-14T13:18:24;7.90;99.90
11005;DHT22;5555;59.622;16.556;2022-11-14T13:21:25;7.90;99.90
11005;DHT22;5555;59.622;16.556;2022-11-14T13:24:11;7.90;99.90
11005;DHT22;5555;59.622;16.556;2022-11-14T13:26:39;7.90;99.90
11005;DHT22;5555;59.622;16.556;2022-11-14T13:29:05;7.80;99.90
11005;DHT22;5555;59.622;16.556;2022-11-14T13:36:57;7.80;99.90
11005;DHT22;5555;59.622;16.556;2022-11-14T13:42:08;7.80;99.90
11005;DHT22;5555;59.622;16.556;2022-11-14T13:50:07;7.70;99.90
11005;DHT22;5555;59.622;16.556;2022-11-14T13:52:38;7.70;99.90
11005;DHT22;5555;59.622;16.556;2022-11-14T13:55:05;7.70;99.90
11005;DHT22;5555;59.622;16.556;2022-11-14T13:58:21;7.70;99.90
11005;DHT22;5555;59.622;16.556;2022-11-14T14:00:29;7.70;99.90
11005;DHT22;5555;59.622;16.556;2022-11-14T14:03:14;7.70;99.90
11005;DHT22;5555;59.622;16.556;2022-11-14T14:05:56;7.60;99.90
11005;DHT22;5555;59.622;16.556;2022-11-14T14:09:16;7.60;99.90
11005;DHT22;5555;59.622;16.556;2022-11-14T14:17:08;7.60;99.90
11005;DHT22;5555;59.622;16.556;2022-11-14T14:25:08;7.60;99.90
11005;DHT22;5555;59.622;16.556;2022-11-14T14:30:32;7.50;99.90
11005;DHT22;5555;59.622;16.556;2022-11-14T14:33:12;7.50;99.90
11005;DHT22;5555;59.622;16.556;2022-11-14T14:35:39;7.50;99.90
11005;DHT22;5555;59.622;16.556;2022-11-14T14:38:22;7.60;99.90
11005;DHT22;5555;59.622;16.556;2022-11-14T14:40:49;7.60;99.90
11005;DHT22;5555;59.622;16.556;2022-11-14T14:43:30;7.60;99.90
11005;DHT22;5555;59.622;16.556;2022-11-14T14:45:57;7.50;99.90
11005;DHT22;5555;59.622;16.556;2022-11-14T14:48:26;7.50;99.90
11005;DHT22;5555;59.622;16.556;2022-11-14T14:50:57;7.50;99.90
11005;DHT22;5555;59.622;16.556;2022-11-14T14:53:31;7.50;99.90
11005;DHT22;5555;59.622;16.556;2022-11-14T14:56:00;7.50;99.90
11005;DHT22;5555;59.622;16.556;2022-11-14T14:58:30;7.50;99.90
11005;DHT22;5555;59.622;16.556;2022-11-14T15:01:14;7.50;99.90
11005;DHT22;5555;59.622;16.556;2022-11-14T15:03:55;7.50;99.90
11005;DHT22;5555;59.622;16.556;2022-11-14T15:06:31;7.40;99.90
11005;DHT22;5555;59.622;16.556;2022-11-14T15:09:01;7.50;99.90
11005;DHT22;5555;59.622;16.556;2022-11-14T15:11:33;7.40;99.90
11005;DHT22;5555;59.622;16.556;2022-11-14T15:14:00;7.40;99.90
11005;DHT22;5555;59.622;16.556;2022-11-14T15:16:26;7.40;99.90
11005;DHT22;5555;59.622;16.556;2022-11-14T15:18:55;7.40;99.90
11005;DHT22;5555;59.622;16.556;2022-11-14T15:21:28;7.40;99.90
11005;DHT22;5555;59.622;16.556;2022-11-14T15:23:59;7.40;99.90
11005;DHT22;5555;59.622;16.556;2022-11-14T15:26:27;7.40;99.90
11005;DHT22;5555;59.622;16.556;2022-11-14T15:29:22;7.40;99.90
11005;DHT22;5555;59.622;16.556;2022-11-14T15:31:58;7.40;99.90
11005;DHT22;5555;59.622;16.556;2022-11-14T15:34:32;7.40;99.90
11005;DHT22;5555;59.622;16.556;2022-11-14T15:39:42;7.40;99.90
11005;DHT22;5555;59.622;16.556;2022-11-14T15:44:55;7.40;99.90
11005;DHT22;5555;59.622;16.556;2022-11-14T15:52:39;7.40;99.90
11005;DHT22;5555;59.622;16.556;2022-11-14T15:55:15;7.40;99.90
11005;DHT22;5555;59.622;16.556;2022-11-14T15:57:41;7.30;99.90
11005;DHT22;5555;59.622;16.556;2022-11-14T16:00:11;7.30;99.90
11005;DHT22;5555;59.622;16.556;2022-11-14T16:02:42;7.30;99.90
11005;DHT22;5555;59.622;16.556;2022-11-14T16:05:12;7.30;99.90
11005;DHT22;5555;59.622;16.556;2022-11-14T16:07:39;7.30;99.90
11005;DHT22;5555;59.622;16.556;2022-11-14T16:10:15;7.40;99.90
11005;DHT22;5555;59.622;16.556;2022-11-14T16:12:41;7.30;99.90
11005;DHT22;5555;59.622;16.556;2022-11-14T16:15:07;7.30;99.90
11005;DHT22;5555;59.622;16.556;2022-11-14T16:17:37;7.30;99.90
11005;DHT22;5555;59.622;16.556;2022-11-14T16:20:06;7.30;99.90
11005;DHT22;5555;59.622;16.556;2022-11-14T16:22:32;7.30;99.90
11005;DHT22;5555;59.622;16.556;2022-11-14T16:24:59;7.30;99.90
11005;DHT22;5555;59.622;16.556;2022-11-14T16:27:25;7.30;99.90
11005;DHT22;5555;59.622;16.556;2022-11-14T16:29:51;7.30;99.90
11005;DHT22;5555;59.622;16.556;2022-11-14T16:32:17;7.30;99.90
11005;DHT22;5555;59.622;16.556;2022-11-14T16:34:43;7.40;99.90
11005;DHT22;5555;59.622;16.556;2022-11-14T16:37:11;7.30;99.90
11005;DHT22;5555;59.622;16.556;2022-11-14T16:39:37;7.30;99.90
11005;DHT22;5555;59.622;16.556;2022-11-14T16:42:03;7.30;99.90
11005;DHT22;5555;59.622;16.556;2022-11-14T16:44:29;7.40;99.90
11005;DHT22;5555;59.622;16.556;2022-11-14T16:46:55;7.30;99.90
11005;DHT22;5555;59.622;16.556;2022-11-14T16:49:20;7.30;99.90
11005;DHT22;5555;59.622;16.556;2022-11-14T16:51:47;7.30;99.90
11005;DHT22;5555;59.622;16.556;2022-11-14T16:54:15;7.30;99.90
11005;DHT22;5555;59.622;16.556;2022-11-14T16:56:41;7.30;99.90
11005;DHT22;5555;59.622;16.556;2022-11-14T16:59:09;7.30;99.90
11005;DHT22;5555;59.622;16.556;2022-11-14T17:01:35;7.30;99.90
11005;DHT22;5555;59.622;16.556;2022-11-14T17:04:01;7.30;99.90
11005;DHT22;5555;59.622;16.556;2022-11-14T17:06:28;7.30;99.90
11005;DHT22;5555;59.622;16.556;2022-11-14T17:08:55;7.30;99.90
11005;DHT22;5555;59.622;16.556;2022-11-14T17:11:21;7.30;99.90
11005;DHT22;5555;59.622;16.556;2022-11-14T17:13:47;7.30;99.90
11005;DHT22;5555;59.622;16.556;2022-11-14T17:16:13;7.30;99.90
11005;DHT22;5555;59.622;16.556;2022-11-14T17:18:38;7.30;99.90
11005;DHT22;5555;59.622;16.556;2022-11-14T17:21:08;7.30;99.90
11005;DHT22;5555;59.622;16.556;2022-11-14T17:23:34;7.30;99.90
11005;DHT22;5555;59.622;16.556;2022-11-14T17:26:04;7.30;99.90
11005;DHT22;5555;59.622;16.556;2022-11-14T17:28:32;7.30;99.90
11005;DHT22;5555;59.622;16.556;2022-11-14T17:30:57;7.30;99.90
11005;DHT22;5555;59.622;16.556;2022-11-14T17:33:23;7.20;99.90
11005;DHT22;5555;59.622;16.556;2022-11-14T17:35:49;7.20;99.90